sensor_id;sensor_type;location;lat;lon;timestamp;pressure;altitude;pressure_sealevel;temperature;humidity
15529;BME280;7866;52.280;9.500;2023-10-19T00:04:15;98755.84;;;7.99;97.63
15529;BME280;7866;52.280;9.500;2023-10-19T00:09:17;98741.88;;;7.97;97.94
15529;BME280;7866;52.280;9.500;2023-10-19T00:14:20;98729.38;;;7.97;98.44
15529;BME280;7866;52.280;9.500;2023-10-19T00:19:23;98721.56;;;7.96;98.53
15529;BME280;7866;52.280;9.500;2023-10-19T00:24:28;98711.72;;;7.96;98.82
15529;BME280;7866;52.280;9.500;2023-10-19T00:29:32;98710.25;;;7.94;99.30
15529;BME280;7866;52.280;9.500;2023-10-19T00:34:41;98707.88;;;7.99;98.87
15529;BME280;7866;52.280;9.500;2023-10-19T00:39:50;98690.19;;;7.98;98.93
15529;BME280;7866;52.280;9.500;2023-10-19T00:44:54;98681.97;;;7.93;99.51
15529;BME280;7866;52.280;9.500;2023-10-19T00:50:04;98685.06;;;7.96;99.82
15529;BME280;7866;52.280;9.500;2023-10-19T00:55:06;98674.78;;;7.93;100.00
15529;BME280;7866;52.280;9.500;2023-10-19T01:00:10;98673.16;;;7.92;100.00
15529;BME280;7866;52.280;9.500;2023-10-19T01:05:14;98663.13;;;7.94;100.00
15529;BME280;7866;52.280;9.500;2023-10-19T01:10:21;98643.78;;;7.85;100.00
15529;BME280;7866;52.280;9.500;2023-10-19T01:15:24;98642.13;;;7.84;100.00
15529;BME280;7866;52.280;9.500;2023-10-19T01:20:31;98639.66;;;7.83;100.00
15529;BME280;7866;52.280;9.500;2023-10-19T01:25:50;98619.75;;;7.79;100.00
15529;BME280;7866;52.280;9.500;2023-10-19T01:30:59;98615.00;;;7.74;100.00
15529;BME280;7866;52.280;9.500;2023-10-19T01:36:06;98602.31;;;7.76;100.00
15529;BME280;7866;52.280;9.500;2023-10-19T01:41:27;98594.31;;;7.76;100.00
15529;BME280;7866;52.280;9.500;2023-10-19T01:46:31;98588.31;;;7.68;100.00
15529;BME280;7866;52.280;9.500;2023-10-19T01:51:34;98577.88;;;7.73;100.00
15529;BME280;7866;52.280;9.500;2023-10-19T01:56:40;98569.06;;;7.72;100.00
15529;BME280;7866;52.280;9.500;2023-10-19T02:01:43;98548.56;;;7.73;100.00
15529;BME280;7866;52.280;9.500;2023-10-19T02:06:46;98547.75;;;7.72;100.00
15529;BME280;7866;52.280;9.500;2023-10-19T02:11:51;98545.31;;;7.77;100.00
15529;BME280;7866;52.280;9.500;2023-10-19T02:16:57;98549.44;;;7.80;100.00
15529;BME280;7866;52.280;9.500;2023-10-19T02:22:02;98548.25;;;7.89;100.00
15529;BME280;7866;52.280;9.500;2023-10-19T02:27:06;98536.34;;;7.85;100.00
15529;BME280;7866;52.280;9.500;2023-10-19T02:32:09;98527.75;;;7.83;100.00
15529;BME280;7866;52.280;9.500;2023-10-19T02:37:11;98521.75;;;7.74;100.00
15529;BME280;7866;52.280;9.500;2023-10-19T02:42:14;98513.34;;;7.77;100.00
15529;BME280;7866;52.280;9.500;2023-10-19T02:47:17;98505.56;;;7.76;100.00
15529;BME280;7866;52.280;9.500;2023-10-19T02:52:19;98506.59;;;7.75;100.00
15529;BME280;7866;52.280;9.500;2023-10-19T02:57:22;98501.44;;;7.73;100.00
15529;BME280;7866;52.280;9.500;2023-10-19T03:02:24;98497.06;;;7.65;100.00
15529;BME280;7866;52.280;9.500;2023-10-19T03:07:27;98487.28;;;7.66;100.00
15529;BME280;7866;52.280;9.500;2023-10-19T03:12:30;98482.16;;;7.71;100.00
15529;BME280;7866;52.280;9.500;2023-10-19T03:17:33;98475.16;;;7.63;100.00
15529;BME280;7866;52.280;9.500;2023-10-19T03:22:34;98474.72;;;7.60;100.00
15529;BME280;7866;52.280;9.500;2023-10-19T03:27:37;98467.53;;;7.60;100.00
15529;BME280;7866;52.280;9.500;2023-10-19T03:32:39;98463.28;;;7.66;100.00
15529;BME280;7866;52.280;9.500;2023-10-19T03:37:41;98454.63;;;7.57;100.00
15529;BME280;7866;52.280;9.500;2023-10-19T03:42:44;98457.56;;;7.69;100.00
15529;BME280;7866;52.280;9.500;2023-10-19T03:47:47;98448.13;;;7.67;100.00
15529;BME280;7866;52.280;9.500;2023-10-19T03:52:50;98438.91;;;7.69;100.00
15529;BME280;7866;52.280;9.500;2023-10-19T03:57:53;98436.88;;;7.71;100.00
15529;BME280;7866;52.280;9.500;2023-10-19T04:02:55;98427.03;;;7.72;100.00
15529;BME280;7866;52.280;9.500;2023-10-19T04:07:58;98426.41;;;7.70;100.00
15529;BME280;7866;52.280;9.500;2023-10-19T04:13:02;98425.56;;;7.69;100.00
15529;BME280;7866;52.280;9.500;2023-10-19T04:18:05;98419.03;;;7.72;100.00
15529;BME280;7866;52.280;9.500;2023-10-19T04:23:11;98409.19;;;7.72;100.00
15529;BME280;7866;52.280;9.500;2023-10-19T04:28:17;98410.03;;;7.73;100.00
15529;BME280;7866;52.280;9.500;2023-10-19T04:33:22;98410.03;;;7.73;100.00
15529;BME280;7866;52.280;9.500;2023-10-19T04:38:27;98404.69;;;7.73;100.00
15529;BME280;7866;52.280;9.500;2023-10-19T04:43:32;98390.34;;;7.74;100.00
15529;BME280;7866;52.280;9.500;2023-10-19T04:48:33;98393.84;;;7.74;100.00
15529;BME280;7866;52.280;9.500;2023-10-19T04:53:36;98393.66;;;7.76;100.00
15529;BME280;7866;52.280;9.500;2023-10-19T04:58:40;98392.84;;;7.82;100.00
15529;BME280;7866;52.280;9.500;2023-10-19T05:03:41;98387.94;;;7.79;100.00
15529;BME280;7866;52.280;9.500;2023-10-19T05:08:43;98385.44;;;7.77;100.00
15529;BME280;7866;52.280;9.500;2023-10-19T05:13:48;98380.53;;;7.74;100.00
15529;BME280;7866;52.280;9.500;2023-10-19T05:18:51;98376.25;;;7.80;100.00
15529;BME280;7866;52.280;9.500;2023-10-19T05:23:52;98368.47;;;7.78;100.00
15529;BME280;7866;52.280;9.500;2023-10-19T05:28:55;98380.34;;;7.82;100.00
15529;BME280;7866;52.280;9.500;2023-10-19T05:33:57;98383.63;;;7.84;100.00
15529;BME280;7866;52.280;9.500;2023-10-19T05:38:58;98380.56;;;7.87;100.00
15529;BME280;7866;52.280;9.500;2023-10-19T05:44:01;98378.50;;;7.89;100.00
15529;BME280;7866;52.280;9.500;2023-10-19T05:49:04;98385.28;;;7.92;100.00
15529;BME280;7866;52.280;9.500;2023-10-19T05:54:06;98395.13;;;7.92;100.00
15529;BME280;7866;52.280;9.500;2023-10-19T05:59:10;98392.69;;;7.90;100.00
15529;BME280;7866;52.280;9.500;2023-10-19T06:04:12;98391.84;;;7.89;100.00
15529;BME280;7866;52.280;9.500;2023-10-19T06:09:14;98389.81;;;7.92;100.00
15529;BME280;7866;52.280;9.500;2023-10-19T06:14:17;98387.97;;;7.92;100.00
15529;BME280;7866;52.280;9.500;2023-10-19T06:19:19;98392.69;;;7.90;100.00
15529;BME280;7866;52.280;9.500;2023-10-19T06:24:21;98400.47;;;7.92;100.00
15529;BME280;7866;52.280;9.500;2023-10-19T06:29:24;98397.84;;;7.98;100.00
15529;BME280;7866;52.280;9.500;2023-10-19T06:34:29;98400.91;;;7.95;100.00
15529;BME280;7866;52.280;9.500;2023-10-19T06:39:31;98401.31;;;7.99;100.00
15529;BME280;7866;52.280;9.500;2023-10-19T06:44:34;98399.06;;;8.02;100.00
15529;BME280;7866;52.280;9.500;2023-10-19T06:49:36;98384.69;;;7.97;100.00
15529;BME280;7866;52.280;9.500;2023-10-19T06:54:38;98395.78;;;8.00;100.00
15529;BME280;7866;52.280;9.500;2023-10-19T06:59:41;98394.16;;;8.06;100.00
15529;BME280;7866;52.280;9.500;2023-10-19T07:04:43;98391.91;;;8.09;100.00
15529;BME280;7866;52.280;9.500;2023-10-19T07:09:45;98399.91;;;8.09;100.00
15529;BME280;7866;52.280;9.500;2023-10-19T07:14:48;98388.22;;;8.10;100.00
15529;BME280;7866;52.280;9.500;2023-10-19T07:19:49;98391.91;;;8.16;100.00
15529;BME280;7866;52.280;9.500;2023-10-19T07:24:51;98394.59;;;8.16;100.00
15529;BME280;7866;52.280;9.500;2023-10-19T07:29:54;98390.91;;;8.24;100.00
15529;BME280;7866;52.280;9.500;2023-10-19T07:34:57;98376.94;;;8.22;100.00
15529;BME280;7866;52.280;9.500;2023-10-19T07:39:59;98377.78;;;8.29;100.00
15529;BME280;7866;52.280;9.500;2023-10-19T07:45:03;98390.97;;;8.44;100.00
15529;BME280;7866;52.280;9.500;2023-10-19T07:50:06;98387.28;;;8.38;100.00
15529;BME280;7866;52.280;9.500;2023-10-19T07:55:12;98395.50;;;8.43;100.00
15529;BME280;7866;52.280;9.500;2023-10-19T08:00:16;98396.72;;;8.41;100.00
15529;BME280;7866;52.280;9.500;2023-10-19T08:05:18;98391.53;;;8.32;100.00
15529;BME280;7866;52.280;9.500;2023-10-19T08:10:20;98395.69;;;8.42;100.00
15529;BME280;7866;52.280;9.500;2023-10-19T08:15:23;98396.34;;;8.50;100.00
15529;BME280;7866;52.280;9.500;2023-10-19T08:20:26;98403.09;;;8.59;100.00
15529;BME280;7866;52.280;9.500;2023-10-19T08:25:31;98405.97;;;8.64;100.00
15529;BME280;7866;52.280;9.500;2023-10-19T08:30:34;98391.59;;;8.66;100.00
15529;BME280;7866;52.280;9.500;2023-10-19T08:35:37;98401.25;;;8.80;100.00
15529;BME280;7866;52.280;9.500;2023-10-19T08:40:39;98404.13;;;8.85;100.00
15529;BME280;7866;52.280;9.500;2023-10-19T08:45:42;98394.50;;;8.84;100.00
15529;BME280;7866;52.280;9.500;2023-10-19T08:50:44;98394.47;;;8.77;100.00
15529;BME280;7866;52.280;9.500;2023-10-19T08:55:46;98394.28;;;8.79;100.00
15529;BME280;7866;52.280;9.500;2023-10-19T09:00:51;98400.66;;;8.91;100.00
15529;BME280;7866;52.280;9.500;2023-10-19T09:05:55;98386.91;;;8.94;100.00
15529;BME280;7866;52.280;9.500;2023-10-19T09:10:57;98384.41;;;8.99;100.00
15529;BME280;7866;52.280;9.500;2023-10-19T09:16:06;98383.16;;;9.22;100.00
15529;BME280;7866;52.280;9.500;2023-10-19T09:21:08;98367.50;;;9.38;100.00
15529;BME280;7866;52.280;9.500;2023-10-19T09:26:12;98368.56;;;9.31;100.00
15529;BME280;7866;52.280;9.500;2023-10-19T09:31:15;98366.34;;;9.15;100.00
15529;BME280;7866;52.280;9.500;2023-10-19T09:36:17;98362.13;;;9.45;100.00
15529;BME280;7866;52.280;9.500;2023-10-19T09:41:21;98365.41;;;9.47;100.00
15529;BME280;7866;52.280;9.500;2023-10-19T09:46:32;98376.16;;;9.34;100.00
15529;BME280;7866;52.280;9.500;2023-10-19T09:51:37;98364.84;;;9.25;100.00
15529;BME280;7866;52.280;9.500;2023-10-19T09:56:43;98362.81;;;9.21;100.00
15529;BME280;7866;52.280;9.500;2023-10-19T10:02:07;98370.81;;;9.34;100.00
15529;BME280;7866;52.280;9.500;2023-10-19T10:07:11;98364.63;;;9.33;100.00
15529;BME280;7866;52.280;9.500;2023-10-19T10:12:18;98342.00;;;9.43;100.00
15529;BME280;7866;52.280;9.500;2023-10-19T10:17:23;98346.66;;;9.60;100.00
15529;BME280;7866;52.280;9.500;2023-10-19T10:22:25;98354.31;;;9.50;100.00
15529;BME280;7866;52.280;9.500;2023-10-19T10:27:27;98348.69;;;9.65;100.00
15529;BME280;7866;52.280;9.500;2023-10-19T10:32:44;98346.13;;;9.90;100.00
15529;BME280;7866;52.280;9.500;2023-10-19T10:37:53;98340.56;;;9.85;100.00
15529;BME280;7866;52.280;9.500;2023-10-19T10:43:05;98333.97;;;9.94;100.00
15529;BME280;7866;52.280;9.500;2023-10-19T10:48:12;98326.75;;;9.95;100.00
15529;BME280;7866;52.280;9.500;2023-10-19T10:53:14;98331.47;;;9.99;100.00
15529;BME280;7866;52.280;9.500;2023-10-19T10:58:16;98335.47;;;10.15;100.00
15529;BME280;7866;52.280;9.500;2023-10-19T11:03:19;98328.94;;;10.04;100.00
15529;BME280;7866;52.280;9.500;2023-10-19T11:08:24;98329.72;;;9.80;100.00
15529;BME280;7866;52.280;9.500;2023-10-19T11:13:26;98336.44;;;9.89;100.00
15529;BME280;7866;52.280;9.500;2023-10-19T11:18:31;98330.72;;;9.85;100.00
15529;BME280;7866;52.280;9.500;2023-10-19T11:23:37;98323.66;;;9.98;100.00
15529;BME280;7866;52.280;9.500;2023-10-19T11:28:39;98336.38;;;10.02;100.00
15529;BME280;7866;52.280;9.500;2023-10-19T11:33:49;98320.34;;;10.02;100.00
15529;BME280;7866;52.280;9.500;2023-10-19T11:38:52;98324.00;;;10.08;100.00
15529;BME280;7866;52.280;9.500;2023-10-19T11:43:55;98322.13;;;10.08;100.00
15529;BME280;7866;52.280;9.500;2023-10-19T11:48:58;98321.44;;;10.20;100.00
15529;BME280;7866;52.280;9.500;2023-10-19T11:54:00;98318.19;;;10.18;100.00
15529;BME280;7866;52.280;9.500;2023-10-19T11:59:02;98309.69;;;10.27;100.00
15529;BME280;7866;52.280;9.500;2023-10-19T12:04:05;98322.84;;;10.29;100.00
15529;BME280;7866;52.280;9.500;2023-10-19T12:09:07;98314.94;;;10.41;100.00
15529;BME280;7866;52.280;9.500;2023-10-19T12:14:15;98308.69;;;10.53;100.00
15529;BME280;7866;52.280;9.500;2023-10-19T12:19:18;98306.09;;;10.65;100.00
15529;BME280;7866;52.280;9.500;2023-10-19T12:24:19;98304.63;;;10.69;100.00
15529;BME280;7866;52.280;9.500;2023-10-19T12:29:21;98299.75;;;10.59;100.00
15529;BME280;7866;52.280;9.500;2023-10-19T12:34:25;98305.13;;;10.59;100.00
15529;BME280;7866;52.280;9.500;2023-10-19T12:39:30;98305.13;;;10.59;100.00
15529;BME280;7866;52.280;9.500;2023-10-19T12:44:43;98303.06;;;10.62;100.00
15529;BME280;7866;52.280;9.500;2023-10-19T12:49:46;98302.44;;;10.59;100.00
15529;BME280;7866;52.280;9.500;2023-10-19T12:54:48;98305.88;;;10.67;100.00
15529;BME280;7866;52.280;9.500;2023-10-19T12:59:51;98313.44;;;10.51;100.00
15529;BME280;7866;52.280;9.500;2023-10-19T13:04:54;98310.09;;;10.56;100.00
15529;BME280;7866;52.280;9.500;2023-10-19T13:09:59;98310.47;;;10.59;100.00
15529;BME280;7866;52.280;9.500;2023-10-19T13:15:02;98296.13;;;10.54;100.00
15529;BME280;7866;52.280;9.500;2023-10-19T13:20:10;98291.31;;;10.63;100.00
15529;BME280;7866;52.280;9.500;2023-10-19T13:25:18;98292.56;;;10.60;100.00
15529;BME280;7866;52.280;9.500;2023-10-19T13:30:29;98293.97;;;10.63;100.00
15529;BME280;7866;52.280;9.500;2023-10-19T13:35:32;98290.09;;;10.58;100.00
15529;BME280;7866;52.280;9.500;2023-10-19T13:40:34;98289.50;;;10.56;100.00
15529;BME280;7866;52.280;9.500;2023-10-19T13:45:37;98298.34;;;10.57;100.00
15529;BME280;7866;52.280;9.500;2023-10-19T13:50:44;98291.06;;;10.64;100.00
15529;BME280;7866;52.280;9.500;2023-10-19T13:55:48;98281.56;;;10.68;100.00
15529;BME280;7866;52.280;9.500;2023-10-19T14:00:50;98272.94;;;10.66;100.00
15529;BME280;7866;52.280;9.500;2023-10-19T14:05:53;98294.19;;;10.61;100.00
15529;BME280;7866;52.280;9.500;2023-10-19T14:11:01;98293.97;;;10.63;100.00
15529;BME280;7866;52.280;9.500;2023-10-19T14:16:05;98281.47;;;10.56;100.00
15529;BME280;7866;52.280;9.500;2023-10-19T14:21:14;98277.00;;;10.50;100.00
15529;BME280;7866;52.280;9.500;2023-10-19T14:26:15;98275.38;;;10.49;100.00
15529;BME280;7866;52.280;9.500;2023-10-19T14:31:17;98273.00;;;10.59;100.00
15529;BME280;7866;52.280;9.500;2023-10-19T14:36:21;98274.72;;;10.54;100.00
15529;BME280;7866;52.280;9.500;2023-10-19T14:41:23;98264.81;;;10.54;100.00
15529;BME280;7866;52.280;9.500;2023-10-19T14:46:25;98269.41;;;10.47;100.00
15529;BME280;7866;52.280;9.500;2023-10-19T14:51:30;98262.84;;;10.43;100.00
15529;BME280;7866;52.280;9.500;2023-10-19T14:56:32;98268.06;;;10.38;100.00
15529;BME280;7866;52.280;9.500;2023-10-19T15:01:33;98262.69;;;10.38;100.00
15529;BME280;7866;52.280;9.500;2023-10-19T15:06:37;98259.84;;;10.33;100.00
15529;BME280;7866;52.280;9.500;2023-10-19T15:11:39;98253.63;;;10.39;100.00
15529;BME280;7866;52.280;9.500;2023-10-19T15:16:40;98256.88;;;10.41;100.00
15529;BME280;7866;52.280;9.500;2023-10-19T15:21:43;98256.72;;;10.36;100.00
15529;BME280;7866;52.280;9.500;2023-10-19T15:26:45;98253.47;;;10.34;100.00
15529;BME280;7866;52.280;9.500;2023-10-19T15:31:47;98243.44;;;10.29;100.00
15529;BME280;7866;52.280;9.500;2023-10-19T15:36:51;98244.44;;;10.28;100.00
15529;BME280;7866;52.280;9.500;2023-10-19T15:41:52;98240.38;;;10.19;100.00
15529;BME280;7866;52.280;9.500;2023-10-19T15:46:54;98253.53;;;10.21;100.00
15529;BME280;7866;52.280;9.500;2023-10-19T15:51:57;98233.41;;;10.18;100.00
15529;BME280;7866;52.280;9.500;2023-10-19T15:56:59;98230.94;;;10.17;100.00
15529;BME280;7866;52.280;9.500;2023-10-19T16:02:00;98232.59;;;10.18;100.00
15529;BME280;7866;52.280;9.500;2023-10-19T16:07:03;98231.13;;;10.22;100.00
15529;BME280;7866;52.280;9.500;2023-10-19T16:12:06;98231.13;;;10.22;100.00
15529;BME280;7866;52.280;9.500;2023-10-19T16:17:08;98236.47;;;10.22;100.00
15529;BME280;7866;52.280;9.500;2023-10-19T16:22:12;98237.75;;;10.12;100.00
15529;BME280;7866;52.280;9.500;2023-10-19T16:27:14;98246.25;;;10.09;100.00
15529;BME280;7866;52.280;9.500;2023-10-19T16:32:16;98238.25;;;10.03;100.00
15529;BME280;7866;52.280;9.500;2023-10-19T16:37:21;98243.00;;;10.01;100.00
15529;BME280;7866;52.280;9.500;2023-10-19T16:42:23;98239.75;;;9.92;100.00
15529;BME280;7866;52.280;9.500;2023-10-19T16:47:25;98247.63;;;9.87;100.00
15529;BME280;7866;52.280;9.500;2023-10-19T16:52:28;98249.50;;;9.80;100.00
15529;BME280;7866;52.280;9.500;2023-10-19T16:57:29;98239.88;;;9.79;100.00
15529;BME280;7866;52.280;9.500;2023-10-19T17:02:31;98236.56;;;9.77;100.00
15529;BME280;7866;52.280;9.500;2023-10-19T17:07:34;98239.97;;;9.66;100.00
15529;BME280;7866;52.280;9.500;2023-10-19T17:12:36;98225.25;;;9.50;100.00
15529;BME280;7866;52.280;9.500;2023-10-19T17:17:37;98228.53;;;9.45;100.00
15529;BME280;7866;52.280;9.500;2023-10-19T17:22:40;98232.91;;;9.33;100.00
15529;BME280;7866;52.280;9.500;2023-10-19T17:27:43;98223.91;;;9.27;100.00
15529;BME280;7866;52.280;9.500;2023-10-19T17:32:45;98215.91;;;9.27;100.00
15529;BME280;7866;52.280;9.500;2023-10-19T17:37:48;98215.97;;;9.14;100.00
15529;BME280;7866;52.280;9.500;2023-10-19T17:42:49;98217.78;;;9.20;100.00
15529;BME280;7866;52.280;9.500;2023-10-19T17:47:52;98213.06;;;9.22;100.00
15529;BME280;7866;52.280;9.500;2023-10-19T17:52:55;98217.19;;;9.18;100.00
15529;BME280;7866;52.280;9.500;2023-10-19T17:57:56;98206.91;;;9.15;100.00
15529;BME280;7866;52.280;9.500;2023-10-19T18:02:58;98209.41;;;9.10;100.00
15529;BME280;7866;52.280;9.500;2023-10-19T18:08:01;98194.41;;;9.09;100.00
15529;BME280;7866;52.280;9.500;2023-10-19T18:13:03;98204.28;;;9.08;100.00
15529;BME280;7866;52.280;9.500;2023-10-19T18:18:05;98206.53;;;9.11;100.00
15529;BME280;7866;52.280;9.500;2023-10-19T18:23:09;98200.38;;;9.04;100.00
15529;BME280;7866;52.280;9.500;2023-10-19T18:28:11;98203.69;;;9.06;100.00
15529;BME280;7866;52.280;9.500;2023-10-19T18:33:13;98212.28;;;9.08;100.00
15529;BME280;7866;52.280;9.500;2023-10-19T18:38:15;98213.91;;;9.09;100.00
15529;BME280;7866;52.280;9.500;2023-10-19T18:43:17;98225.44;;;9.10;100.00
15529;BME280;7866;52.280;9.500;2023-10-19T18:48:19;98233.47;;;9.03;100.00
15529;BME280;7866;52.280;9.500;2023-10-19T18:53:22;98226.66;;;9.07;100.00
15529;BME280;7866;52.280;9.500;2023-10-19T18:58:24;98215.19;;;9.00;100.00
15529;BME280;7866;52.280;9.500;2023-10-19T19:03:26;98216.63;;;8.96;100.00
15529;BME280;7866;52.280;9.500;2023-10-19T19:08:30;98229.34;;;9.01;100.00
15529;BME280;7866;52.280;9.500;2023-10-19T19:13:32;98230.41;;;9.00;100.00
15529;BME280;7866;52.280;9.500;2023-10-19T19:18:34;98227.31;;;8.96;100.00
15529;BME280;7866;52.280;9.500;2023-10-19T19:23:38;98221.00;;;8.91;100.00
15529;BME280;7866;52.280;9.500;2023-10-19T19:28:40;98207.81;;;8.96;100.00
15529;BME280;7866;52.280;9.500;2023-10-19T19:33:44;98214.78;;;9.03;100.00
15529;BME280;7866;52.280;9.500;2023-10-19T19:38:48;98208.47;;;8.91;100.00
15529;BME280;7866;52.280;9.500;2023-10-19T19:43:49;98203.28;;;8.96;100.00
15529;BME280;7866;52.280;9.500;2023-10-19T19:48:52;98196.31;;;8.95;100.00
15529;BME280;7866;52.280;9.500;2023-10-19T19:53:55;98192.84;;;8.88;100.00
15529;BME280;7866;52.280;9.500;2023-10-19T19:58:57;98189.81;;;8.78;100.00
15529;BME280;7866;52.280;9.500;2023-10-19T20:04:03;98182.41;;;8.80;100.00
15529;BME280;7866;52.280;9.500;2023-10-19T20:09:06;98176.25;;;8.86;100.00
15529;BME280;7866;52.280;9.500;2023-10-19T20:14:11;98172.78;;;8.79;100.00
15529;BME280;7866;52.280;9.500;2023-10-19T20:19:13;98180.75;;;8.85;100.00
15529;BME280;7866;52.280;9.500;2023-10-19T20:24:17;98185.47;;;8.90;100.00
15529;BME280;7866;52.280;9.500;2023-10-19T20:29:19;98180.94;;;8.91;100.00
15529;BME280;7866;52.280;9.500;2023-10-19T20:34:20;98165.56;;;8.86;100.00
15529;BME280;7866;52.280;9.500;2023-10-19T20:39:24;98160.41;;;8.91;100.00
15529;BME280;7866;52.280;9.500;2023-10-19T20:44:25;98153.06;;;8.80;100.00
15529;BME280;7866;52.280;9.500;2023-10-19T20:49:30;98145.06;;;8.80;100.00
15529;BME280;7866;52.280;9.500;2023-10-19T20:54:34;98153.22;;;8.85;100.00
15529;BME280;7866;52.280;9.500;2023-10-19T20:59:37;98163.97;;;8.78;100.00
15529;BME280;7866;52.280;9.500;2023-10-19T21:04:38;98162.91;;;8.79;100.00
15529;BME280;7866;52.280;9.500;2023-10-19T21:09:41;98161.06;;;8.80;100.00
15529;BME280;7866;52.280;9.500;2023-10-19T21:14:43;98157.00;;;8.71;100.00
15529;BME280;7866;52.280;9.500;2023-10-19T21:19:45;98147.31;;;8.76;100.00
15529;BME280;7866;52.280;9.500;2023-10-19T21:24:48;98139.88;;;8.85;100.00
15529;BME280;7866;52.280;9.500;2023-10-19T21:29:49;98134.78;;;8.83;100.00
15529;BME280;7866;52.280;9.500;2023-10-19T21:34:52;98143.41;;;8.79;100.00
15529;BME280;7866;52.280;9.500;2023-10-19T21:39:55;98154.50;;;8.82;100.00
15529;BME280;7866;52.280;9.500;2023-10-19T21:44:57;98146.25;;;8.91;100.00
15529;BME280;7866;52.280;9.500;2023-10-19T21:49:58;98140.50;;;8.87;100.00
15529;BME280;7866;52.280;9.500;2023-10-19T21:55:02;98127.59;;;8.84;100.00
15529;BME280;7866;52.280;9.500;2023-10-19T22:00:06;98108.72;;;8.79;100.00
15529;BME280;7866;52.280;9.500;2023-10-19T22:05:12;98099.66;;;8.86;100.00
15529;BME280;7866;52.280;9.500;2023-10-19T22:10:16;98090.22;;;8.84;100.00
15529;BME280;7866;52.280;9.500;2023-10-19T22:15:20;98087.53;;;8.84;100.00
15529;BME280;7866;52.280;9.500;2023-10-19T22:20:21;98073.22;;;8.78;100.00
15529;BME280;7866;52.280;9.500;2023-10-19T22:25:24;98067.44;;;8.81;100.00
15529;BME280;7866;52.280;9.500;2023-10-19T22:30:26;98067.22;;;8.83;100.00
15529;BME280;7866;52.280;9.500;2023-10-19T22:35:28;98071.13;;;8.87;100.00
15529;BME280;7866;52.280;9.500;2023-10-19T22:40:31;98055.28;;;8.85;100.00
15529;BME280;7866;52.280;9.500;2023-10-19T22:45:32;98041.59;;;8.82;100.00
15529;BME280;7866;52.280;9.500;2023-10-19T22:50:34;98042.44;;;8.76;100.00
15529;BME280;7866;52.280;9.500;2023-10-19T22:55:37;98034.84;;;8.73;100.00
15529;BME280;7866;52.280;9.500;2023-10-19T23:00:38;98043.88;;;8.78;100.00
15529;BME280;7866;52.280;9.500;2023-10-19T23:05:41;98053.72;;;8.78;100.00
15529;BME280;7866;52.280;9.500;2023-10-19T23:10:45;98049.78;;;8.80;100.00
15529;BME280;7866;52.280;9.500;2023-10-19T23:15:47;98040.19;;;8.73;100.00
15529;BME280;7866;52.280;9.500;2023-10-19T23:20:52;98043.28;;;8.70;100.00
15529;BME280;7866;52.280;9.500;2023-10-19T23:25:57;98039.59;;;8.71;100.00
15529;BME280;7866;52.280;9.500;2023-10-19T23:31:00;98030.91;;;8.82;100.00
15529;BME280;7866;52.280;9.500;2023-10-19T23:36:05;98013.69;;;8.78;100.00
15529;BME280;7866;52.280;9.500;2023-10-19T23:41:08;98020.50;;;8.74;100.00
15529;BME280;7866;52.280;9.500;2023-10-19T23:46:09;98006.94;;;8.69;100.00
15529;BME280;7866;52.280;9.500;2023-10-19T23:51:11;98010.00;;;8.72;100.00
15529;BME280;7866;52.280;9.500;2023-10-19T23:56:14;98020.09;;;8.70;100.00
